Time;durP1;ratioP1;P1;durP2;ratioP2;P2;SDS_P1;SDS_P2;PMS_P1;PMS_P2;Temp;Humidity;BMP_temperature;BMP_pressure;BME280_temperature;BME280_humidity;BME280_pressure;Samples;Min_cycle;Max_cycle;Signal;HPM_P1;HPM_P2
2022/05/05 00:01:20;;;;;;;;;;;;;;;;;;4939277;29;19933;-83
2022/05/05 00:03:45;;;;;;;;;;;;;;;;;;4940877;29;19907;-81
2022/05/05 00:06:10;;;;;;;;;;;;;;;;;;4931394;29;19967;-80
2022/05/05 00:08:36;;;;;;;;;;;;;;;;;;4917107;29;19926;-92
2022/05/05 00:16:29;;;;;;;;;;;;;;;;;;4918350;29;20018;-90
2022/05/05 00:18:55;;;;;;;;;;;;;;;;;;4918194;29;19962;-85
2022/05/05 00:21:20;;;;;;;;;;;;;;;;;;4917626;29;19923;-82
2022/05/05 00:23:46;;;;;;;;;;;;;;;;;;4917978;29;20398;-82
2022/05/05 00:26:11;;;;;;;;;;;;;;;;;;4917952;29;19925;-81
2022/05/05 00:28:37;;;;;;;;;;;;;;;;;;4918061;29;19965;-80
2022/05/05 00:31:02;;;;;;;;;;;;;;;;;;4917907;29;19978;-90
2022/05/05 00:33:27;;;;;;;;;;;;;;;;;;4916657;29;19969;-80
2022/05/05 00:35:53;;;;;;;;;;;;;;;;;;4917664;29;19930;-81
2022/05/05 00:38:18;;;;;;;;;;;;;;;;;;4916532;29;19915;-79
2022/05/05 00:40:44;;;;;;;;;;;;;;;;;;4916192;29;19923;-88
2022/05/05 00:43:10;;;;;;;;;;;;;;;;;;4917362;29;19922;-80
2022/05/05 00:45:35;;;;;;;;;;;;;;;;;;4917566;29;19946;-89
2022/05/05 00:48:07;;;;;;;;;;;;;;;;;;4917565;29;20390;-86
2022/05/05 00:50:34;;;;;;;;;;;;;;;;;;4917449;29;20492;-79
2022/05/05 00:52:59;;;;;;;;;;;;;;;;;;4916158;29;20311;-88
2022/05/05 00:55:25;;;;;;;;;;;;;;;;;;4917461;29;19923;-80
2022/05/05 00:57:50;;;;;;;;;;;;;;;;;;4917059;29;19922;-80
2022/05/05 01:00:16;;;;;;;;;;;;;;;;;;4917298;29;19919;-82
2022/05/05 01:02:42;;;;;;;;;;;;;;;;;;4918290;29;19919;-89
2022/05/05 01:05:07;;;;;;;;;;;;;;;;;;4917421;29;19916;-84
2022/05/05 01:07:33;;;;;;;;;;;;;;;;;;4916224;29;20364;-91
2022/05/05 01:09:59;;;;;;;;;;;;;;;;;;4916222;29;19923;-79
2022/05/05 01:12:29;;;;;;;;;;;;;;;;;;4917375;29;20377;-87
2022/05/05 01:15:04;;;;;;;;;;;;;;;;;;4915865;29;19923;-81
2022/05/05 01:17:29;;;;;;;;;;;;;;;;;;4915935;29;19923;-80
2022/05/05 01:19:55;;;;;;;;;;;;;;;;;;4917209;29;19975;-83
2022/05/05 01:22:20;;;;;;;;;;;;;;;;;;4915631;29;19982;-85
2022/05/05 01:30:14;;;;;;;;;;;;;;;;;;4917332;29;19930;-89
2022/05/05 01:32:40;;;;;;;;;;;;;;;;;;4915824;29;20014;-84
2022/05/05 01:35:06;;;;;;;;;;;;;;;;;;4917247;29;20014;-79
2022/05/05 01:37:32;;;;;;;;;;;;;;;;;;4915770;29;19915;-81
2022/05/05 01:39:57;;;;;;;;;;;;;;;;;;4916954;29;20279;-91
2022/05/05 01:42:23;;;;;;;;;;;;;;;;;;4915279;29;19994;-80
2022/05/05 01:44:48;;;;;;;;;;;;;;;;;;4916917;29;20026;-81
2022/05/05 01:47:14;;;;;;;;;;;;;;;;;;4916692;29;20328;-79
2022/05/05 01:49:39;;;;;;;;;;;;;;;;;;4915957;29;20371;-82
2022/05/05 01:52:09;;;;;;;;;;;;;;;;;;4915646;29;19918;-91
2022/05/05 01:54:34;;;;;;;;;;;;;;;;;;4912770;29;19920;-84
2022/05/05 01:56:59;;;;;;;;;;;;;;;;;;4900155;29;20285;-83
2022/05/05 01:59:25;;;;;;;;;;;;;;;;;;4916583;29;19970;-85
2022/05/05 02:01:50;;;;;;;;;;;;;;;;;;4916490;29;19919;-84
2022/05/05 02:04:16;;;;;;;;;;;;;;;;;;4917065;29;19926;-91
2022/05/05 02:06:42;;;;;;;;;;;;;;;;;;4915554;29;20273;-91
2022/05/05 02:09:07;;;;;;;;;;;;;;;;;;4915632;29;19930;-92
2022/05/05 02:11:33;;;;;;;;;;;;;;;;;;4919905;29;20017;-81
2022/05/05 02:13:59;;;;;;;;;;;;;;;;;;4920372;29;20273;-85
2022/05/05 02:16:24;;;;;;;;;;;;;;;;;;4920240;29;20294;-90
2022/05/05 02:18:50;;;;;;;;;;;;;;;;;;4919991;29;19930;-92
2022/05/05 02:21:16;;;;;;;;;;;;;;;;;;4920052;29;19923;-82
2022/05/05 02:23:42;;;;;;;;;;;;;;;;;;4920058;29;19923;-80
2022/05/05 02:26:07;;;;;;;;;;;;;;;;;;4920062;29;19931;-82
2022/05/05 02:28:33;;;;;;;;;;;;;;;;;;4918772;29;20437;-90
2022/05/05 02:30:58;;;;;;;;;;;;;;;;;;4919895;29;20371;-79
2022/05/05 02:33:23;;;;;;;;;;;;;;;;;;4919746;29;20375;-79
2022/05/05 02:38:42;;;;;;;;;;;;;;;;;;4918694;29;19920;-81
2022/05/05 02:38:43;;;;;;;;;;;;;;;;;;4919675;29;19966;-80
2022/05/05 02:41:09;;;;;;;;;;;;;;;;;;4918591;29;20439;-84
2022/05/05 02:43:34;;;;;;;;;;;;;;;;;;4918409;29;20018;-79
2022/05/05 02:46:00;;;;;;;;;;;;;;;;;;4919729;29;19962;-80
2022/05/05 02:48:25;;;;;;;;;;;;;;;;;;4918272;29;20261;-80
2022/05/05 02:50:50;;;;;;;;;;;;;;;;;;4919405;29;19926;-81
2022/05/05 02:56:00;;;;;;;;;;;;;;;;;;4918765;29;20415;-86
2022/05/05 02:58:27;;;;;;;;;;;;;;;;;;4918176;29;20009;-83
2022/05/05 03:00:52;;;;;;;;;;;;;;;;;;4924376;29;19994;-80
2022/05/05 03:03:18;;;;;;;;;;;;;;;;;;4938210;29;20363;-81
2022/05/05 03:05:43;;;;;;;;;;;;;;;;;;4938222;29;19923;-80
2022/05/05 03:08:08;;;;;;;;;;;;;;;;;;4938219;29;19926;-82
2022/05/05 03:10:34;;;;;;;;;;;;;;;;;;4938202;29;19918;-82
2022/05/05 03:12:59;;;;;;;;;;;;;;;;;;4938099;29;19915;-85
2022/05/05 03:15:25;;;;;;;;;;;;;;;;;;4938067;29;19929;-86
2022/05/05 03:17:50;;;;;;;;;;;;;;;;;;4938236;29;20005;-83
2022/05/05 03:20:16;;;;;;;;;;;;;;;;;;4933765;29;19974;-89
2022/05/05 03:22:41;;;;;;;;;;;;;;;;;;4937686;29;20366;-91
2022/05/05 03:25:07;;;;;;;;;;;;;;;;;;4938054;29;19919;-79
2022/05/05 03:27:35;;;;;;;;;;;;;;;;;;4937843;29;20025;-81
2022/05/05 03:30:01;;;;;;;;;;;;;;;;;;4937820;29;19925;-84
2022/05/05 03:32:28;;;;;;;;;;;;;;;;;;4937824;29;19914;-86
2022/05/05 03:34:53;;;;;;;;;;;;;;;;;;4937818;29;19977;-88
2022/05/05 03:37:19;;;;;;;;;;;;;;;;;;4937758;29;19919;-89
2022/05/05 03:39:45;;;;;;;;;;;;;;;;;;4937638;29;19923;-80
2022/05/05 03:42:10;;;;;;;;;;;;;;;;;;4929941;29;19919;-79
2022/05/05 03:44:36;;;;;;;;;;;;;;;;;;4917586;29;19923;-79
2022/05/05 03:47:01;;;;;;;;;;;;;;;;;;4918523;29;20427;-90
2022/05/05 03:49:27;;;;;;;;;;;;;;;;;;4932990;29;19934;-78
2022/05/05 03:51:54;;;;;;;;;;;;;;;;;;4936395;29;19931;-80
2022/05/05 03:54:20;;;;;;;;;;;;;;;;;;4937267;29;19919;-78
2022/05/05 03:56:45;;;;;;;;;;;;;;;;;;4937264;29;19926;-91
2022/05/05 03:59:11;;;;;;;;;;;;;;;;;;4937326;29;19918;-91
2022/05/05 04:01:37;;;;;;;;;;;;;;;;;;4937460;29;20287;-92
2022/05/05 04:04:02;;;;;;;;;;;;;;;;;;4937275;29;20088;-79
2022/05/05 04:06:28;;;;;;;;;;;;;;;;;;4937241;29;19919;-79
2022/05/05 04:08:53;;;;;;;;;;;;;;;;;;4937023;29;19965;-80
2022/05/05 04:11:19;;;;;;;;;;;;;;;;;;4937093;29;19933;-79
2022/05/05 04:13:44;;;;;;;;;;;;;;;;;;4937321;29;19923;-92
2022/05/05 04:16:10;;;;;;;;;;;;;;;;;;4936558;29;19923;-87
2022/05/05 04:18:35;;;;;;;;;;;;;;;;;;4936932;29;19929;-86
2022/05/05 04:21:01;;;;;;;;;;;;;;;;;;4937054;29;19919;-87
2022/05/05 04:23:26;;;;;;;;;;;;;;;;;;4924191;29;19927;-80
2022/05/05 04:25:52;;;;;;;;;;;;;;;;;;4916385;29;20367;-81
2022/05/05 04:28:18;;;;;;;;;;;;;;;;;;4916978;29;20316;-82
2022/05/05 04:30:43;;;;;;;;;;;;;;;;;;4916841;29;19923;-82
2022/05/05 04:33:09;;;;;;;;;;;;;;;;;;4916746;29;19919;-83
2022/05/05 04:35:37;;;;;;;;;;;;;;;;;;4917352;29;19920;-81
2022/05/05 04:38:03;;;;;;;;;;;;;;;;;;4917523;29;19985;-80
2022/05/05 04:40:29;;;;;;;;;;;;;;;;;;4917783;29;20325;-81
2022/05/05 04:42:54;;;;;;;;;;;;;;;;;;4917136;29;20058;-81
2022/05/05 04:45:19;;;;;;;;;;;;;;;;;;4917325;29;19941;-82
2022/05/05 04:47:45;;;;;;;;;;;;;;;;;;4916290;29;19919;-88
2022/05/05 04:50:10;;;;;;;;;;;;;;;;;;4917754;29;19963;-92
2022/05/05 04:52:36;;;;;;;;;;;;;;;;;;4917643;29;19954;-83
2022/05/05 04:55:02;;;;;;;;;;;;;;;;;;4917336;29;20358;-85
2022/05/05 04:57:27;;;;;;;;;;;;;;;;;;4916011;29;19923;-86
2022/05/05 04:59:53;;;;;;;;;;;;;;;;;;4917292;29;19919;-82
2022/05/05 05:02:19;;;;;;;;;;;;;;;;;;4915980;29;20014;-90
2022/05/05 05:04:44;;;;;;;;;;;;;;;;;;4917070;29;19974;-83
2022/05/05 05:07:10;;;;;;;;;;;;;;;;;;4916952;29;19919;-83
2022/05/05 05:09:36;;;;;;;;;;;;;;;;;;4916843;29;19928;-88
2022/05/05 05:12:01;;;;;;;;;;;;;;;;;;4917180;29;19942;-91
2022/05/05 05:14:27;;;;;;;;;;;;;;;;;;4917386;29;19919;-90
2022/05/05 05:16:52;;;;;;;;;;;;;;;;;;4917091;29;20439;-81
2022/05/05 05:19:18;;;;;;;;;;;;;;;;;;4916921;29;19974;-87
2022/05/05 05:21:43;;;;;;;;;;;;;;;;;;4916941;29;19923;-82
2022/05/05 05:24:09;;;;;;;;;;;;;;;;;;4903846;29;20059;-83
2022/05/05 05:26:35;;;;;;;;;;;;;;;;;;4900251;29;20036;-82
2022/05/05 05:29:00;;;;;;;;;;;;;;;;;;4913085;29;19923;-82
2022/05/05 05:31:26;;;;;;;;;;;;;;;;;;4926509;29;19923;-86
2022/05/05 05:33:52;;;;;;;;;;;;;;;;;;4937260;29;19923;-80
2022/05/05 05:36:18;;;;;;;;;;;;;;;;;;4930589;29;19944;-80
2022/05/05 05:38:44;;;;;;;;;;;;;;;;;;4933277;29;19956;-83
2022/05/05 05:41:09;;;;;;;;;;;;;;;;;;4916895;29;19927;-81
2022/05/05 05:43:35;;;;;;;;;;;;;;;;;;4915455;29;20383;-86
2022/05/05 05:46:00;;;;;;;;;;;;;;;;;;4919270;29;19927;-88
2022/05/05 05:48:26;;;;;;;;;;;;;;;;;;4920873;29;19926;-88
2022/05/05 05:50:51;;;;;;;;;;;;;;;;;;4919729;29;19966;-85
2022/05/05 05:53:17;;;;;;;;;;;;;;;;;;4920625;29;19931;-82
2022/05/05 05:55:42;;;;;;;;;;;;;;;;;;4914967;29;19923;-86
2022/05/05 05:58:07;;;;;;;;;;;;;;;;;;4903130;29;19984;-92
2022/05/05 06:00:33;;;;;;;;;;;;;;;;;;4901890;29;19928;-84
2022/05/05 06:05:43;;;;;;;;;;;;;;;;;;4920442;29;19928;-83
2022/05/05 06:08:08;;;;;;;;;;;;;;;;;;4920333;29;20294;-89
2022/05/05 06:10:34;;;;;;;;;;;;;;;;;;4920433;29;19923;-86
2022/05/05 06:12:59;;;;;;;;;;;;;;;;;;4920511;29;19915;-84
2022/05/05 06:15:25;;;;;;;;;;;;;;;;;;4908863;29;20026;-81
2022/05/05 06:17:51;;;;;;;;;;;;;;;;;;4900234;29;19923;-80
2022/05/05 06:20:16;;;;;;;;;;;;;;;;;;4901406;29;19918;-84
2022/05/05 06:22:42;;;;;;;;;;;;;;;;;;4901514;29;19955;-87
2022/05/05 06:25:08;;;;;;;;;;;;;;;;;;4901171;29;19923;-82
2022/05/05 06:27:33;;;;;;;;;;;;;;;;;;4901139;29;19930;-81
2022/05/05 06:30:03;;;;;;;;;;;;;;;;;;4901162;29;19919;-88
2022/05/05 06:32:29;;;;;;;;;;;;;;;;;;4899783;29;19916;-90
2022/05/05 06:34:54;;;;;;;;;;;;;;;;;;4900950;29;19982;-81
2022/05/05 06:37:22;;;;;;;;;;;;;;;;;;4900959;29;19920;-81
2022/05/05 06:39:48;;;;;;;;;;;;;;;;;;4900797;29;20296;-80
2022/05/05 06:42:14;;;;;;;;;;;;;;;;;;4900681;29;19924;-81
2022/05/05 06:44:40;;;;;;;;;;;;;;;;;;4900792;29;19924;-80
2022/05/05 06:47:05;;;;;;;;;;;;;;;;;;4883975;29;20513;-81
2022/05/05 06:49:31;;;;;;;;;;;;;;;;;;4900861;29;19971;-81
2022/05/05 06:51:57;;;;;;;;;;;;;;;;;;4901003;29;20001;-80
2022/05/05 06:54:22;;;;;;;;;;;;;;;;;;4900766;29;19920;-88
2022/05/05 06:56:48;;;;;;;;;;;;;;;;;;4900018;29;19926;-81
2022/05/05 06:59:14;;;;;;;;;;;;;;;;;;4900618;29;20036;-86
2022/05/05 07:01:56;;;;;;;;;;;;;;;;;;4900666;29;19923;-80
2022/05/05 07:07:13;;;;;;;;;;;;;;;;;;4900639;29;20387;-85
2022/05/05 07:12:23;;;;;;;;;;;;;;;;;;4918514;29;20600;-80
2022/05/05 07:14:48;;;;;;;;;;;;;;;;;;4918893;29;19962;-82
2022/05/05 07:17:14;;;;;;;;;;;;;;;;;;4917765;29;19919;-83
2022/05/05 07:19:40;;;;;;;;;;;;;;;;;;4919284;29;19919;-79
2022/05/05 07:22:06;;;;;;;;;;;;;;;;;;4919063;29;20391;-92
2022/05/05 07:24:31;;;;;;;;;;;;;;;;;;4918985;29;19919;-86
2022/05/05 07:26:57;;;;;;;;;;;;;;;;;;4917855;29;19919;-92
2022/05/05 07:29:23;;;;;;;;;;;;;;;;;;4919010;29;19970;-91
2022/05/05 07:31:49;;;;;;;;;;;;;;;;;;4919071;29;19919;-92
2022/05/05 07:34:15;;;;;;;;;;;;;;;;;;4919136;29;19934;-89
2022/05/05 07:36:40;;;;;;;;;;;;;;;;;;4918869;29;19919;-90
2022/05/05 07:39:06;;;;;;;;;;;;;;;;;;4917814;29;20375;-90
2022/05/05 07:41:31;;;;;;;;;;;;;;;;;;4919325;29;19919;-92
2022/05/05 07:43:57;;;;;;;;;;;;;;;;;;4918957;29;19923;-91
2022/05/05 07:46:23;;;;;;;;;;;;;;;;;;4919147;29;19919;-91
2022/05/05 07:48:49;;;;;;;;;;;;;;;;;;4918259;29;19919;-78
2022/05/05 07:51:14;;;;;;;;;;;;;;;;;;4918572;29;19919;-79
2022/05/05 07:53:40;;;;;;;;;;;;;;;;;;4918395;29;19915;-80
2022/05/05 07:56:05;;;;;;;;;;;;;;;;;;4913793;29;19924;-81
2022/05/05 07:58:30;;;;;;;;;;;;;;;;;;4899362;29;19930;-82
2022/05/05 08:00:56;;;;;;;;;;;;;;;;;;4899329;29;19919;-81
2022/05/05 08:03:21;;;;;;;;;;;;;;;;;;4899376;29;19923;-81
2022/05/05 08:05:47;;;;;;;;;;;;;;;;;;4906875;29;19924;-83
2022/05/05 08:08:12;;;;;;;;;;;;;;;;;;4900219;29;19919;-84
2022/05/05 08:10:38;;;;;;;;;;;;;;;;;;4917911;29;19938;-80
2022/05/05 08:13:03;;;;;;;;;;;;;;;;;;4918046;29;19926;-82
2022/05/05 08:15:29;;;;;;;;;;;;;;;;;;4918065;29;20022;-82
2022/05/05 08:17:55;;;;;;;;;;;;;;;;;;4916787;29;20376;-85
2022/05/05 08:20:20;;;;;;;;;;;;;;;;;;4917667;29;19918;-83
2022/05/05 08:22:45;;;;;;;;;;;;;;;;;;4910755;29;19923;-86
2022/05/05 08:30:39;;;;;;;;;;;;;;;;;;4898992;29;19991;-84
2022/05/05 08:33:04;;;;;;;;;;;;;;;;;;4898779;29;20421;-83
2022/05/05 08:35:30;;;;;;;;;;;;;;;;;;4897283;29;20333;-83
2022/05/05 08:37:56;;;;;;;;;;;;;;;;;;4899990;29;20376;-84
2022/05/05 08:40:22;;;;;;;;;;;;;;;;;;4899167;29;20304;-82
2022/05/05 08:42:47;;;;;;;;;;;;;;;;;;4915776;29;20352;-81
2022/05/05 08:45:13;;;;;;;;;;;;;;;;;;4917189;29;20022;-81
2022/05/05 08:47:39;;;;;;;;;;;;;;;;;;4917336;29;20022;-80
2022/05/05 08:50:07;;;;;;;;;;;;;;;;;;4917263;29;20018;-80
2022/05/05 08:52:35;;;;;;;;;;;;;;;;;;4917157;29;20383;-83
2022/05/05 08:55:01;;;;;;;;;;;;;;;;;;4917281;29;20386;-83
2022/05/05 08:57:27;;;;;;;;;;;;;;;;;;4917187;29;19919;-84
2022/05/05 08:59:54;;;;;;;;;;;;;;;;;;4917010;29;19918;-84
2022/05/05 09:02:21;;;;;;;;;;;;;;;;;;4917043;29;19933;-83
2022/05/05 09:04:47;;;;;;;;;;;;;;;;;;4916837;29;19915;-85
2022/05/05 09:07:12;;;;;;;;;;;;;;;;;;4916770;29;20372;-84
2022/05/05 09:09:38;;;;;;;;;;;;;;;;;;4916925;29;19920;-83
2022/05/05 09:12:10;;;;;;;;;;;;;;;;;;4916830;29;20408;-83
2022/05/05 09:14:36;;;;;;;;;;;;;;;;;;4917058;29;19926;-83
2022/05/05 09:17:06;;;;;;;;;;;;;;;;;;4916938;29;19929;-82
2022/05/05 09:19:35;;;;;;;;;;;;;;;;;;4916643;29;19923;-82
2022/05/05 09:22:02;;;;;;;;;;;;;;;;;;4916931;29;20396;-83
2022/05/05 09:24:40;;;;;;;;;;;;;;;;;;4916626;29;19967;-84
2022/05/05 09:27:19;;;;;;;;;;;;;;;;;;4916733;29;20381;-83
2022/05/05 09:30:14;;;;;;;;;;;;;;;;;;4916830;29;19966;-80
2022/05/05 09:32:43;;;;;;;;;;;;;;;;;;4907956;29;20446;-84
2022/05/05 09:35:08;;;;;;;;;;;;;;;;;;4915585;29;20328;-83
2022/05/05 09:37:34;;;;;;;;;;;;;;;;;;4916529;29;19951;-83
2022/05/05 09:40:01;;;;;;;;;;;;;;;;;;4898250;29;19923;-83
2022/05/05 09:42:37;;;;;;;;;;;;;;;;;;4897874;29;19924;-84
2022/05/05 09:45:10;;;;;;;;;;;;;;;;;;4898084;29;19920;-84
2022/05/05 09:47:36;;;;;;;;;;;;;;;;;;4896512;29;20395;-84
2022/05/05 09:50:02;;;;;;;;;;;;;;;;;;4897950;29;19923;-85
2022/05/05 09:57:58;;;;;;;;;;;;;;;;;;4897717;29;20296;-84
2022/05/05 10:05:42;;;;;;;;;;;;;;;;;;4897522;29;19926;-82
2022/05/05 10:08:09;;;;;;;;;;;;;;;;;;4897453;29;19926;-84
2022/05/05 10:10:34;;;;;;;;;;;;;;;;;;4897460;29;19927;-85
2022/05/05 10:13:00;;;;;;;;;;;;;;;;;;4897500;29;19975;-86
2022/05/05 10:15:25;;;;;;;;;;;;;;;;;;4897457;29;19970;-86
2022/05/05 10:17:51;;;;;;;;;;;;;;;;;;4897643;29;19923;-85
2022/05/05 10:20:17;;;;;;;;;;;;;;;;;;4897517;29;19924;-83
2022/05/05 10:22:54;;;;;;;;;;;;;;;;;;4897448;29;19923;-85
2022/05/05 10:25:22;;;;;;;;;;;;;;;;;;4897312;29;19916;-83
2022/05/05 10:27:48;;;;;;;;;;;;;;;;;;4897415;29;19920;-83
2022/05/05 10:30:15;;;;;;;;;;;;;;;;;;4897499;29;19939;-85
2022/05/05 10:32:41;;;;;;;;;;;;;;;;;;4900441;29;19924;-84
2022/05/05 10:35:07;;;;;;;;;;;;;;;;;;4899620;29;19923;-84
2022/05/05 10:37:35;;;;;;;;;;;;;;;;;;4900857;29;19920;-84
2022/05/05 10:40:01;;;;;;;;;;;;;;;;;;4900879;29;19919;-83
2022/05/05 10:42:27;;;;;;;;;;;;;;;;;;4900446;29;20014;-84
2022/05/05 10:45:09;;;;;;;;;;;;;;;;;;4900624;29;20034;-85
2022/05/05 10:47:55;;;;;;;;;;;;;;;;;;4900402;29;20294;-85
2022/05/05 10:50:42;;;;;;;;;;;;;;;;;;4900797;29;19923;-86
2022/05/05 10:53:23;;;;;;;;;;;;;;;;;;4900697;29;20010;-85
2022/05/05 10:55:49;;;;;;;;;;;;;;;;;;4900518;29;19920;-85
2022/05/05 10:58:34;;;;;;;;;;;;;;;;;;4902618;29;19919;-84
2022/05/05 11:01:00;;;;;;;;;;;;;;;;;;4883098;29;19916;-85
2022/05/05 11:03:26;;;;;;;;;;;;;;;;;;4903112;29;19920;-83
2022/05/05 11:06:11;;;;;;;;;;;;;;;;;;4928811;29;19916;-83
2022/05/05 11:08:36;;;;;;;;;;;;;;;;;;4923776;29;19903;-81
2022/05/05 11:14:00;;;;;;;;;;;;;;;;;;4904226;29;20014;-84
2022/05/05 11:22:11;;;;;;;;;;;;;;;;;;4900756;29;20284;-83
2022/05/05 11:24:37;;;;;;;;;;;;;;;;;;4900195;29;19982;-84
2022/05/05 11:27:03;;;;;;;;;;;;;;;;;;4900798;29;19919;-85
2022/05/05 11:29:29;;;;;;;;;;;;;;;;;;4899895;29;19926;-83
2022/05/05 11:31:55;;;;;;;;;;;;;;;;;;4898674;29;20440;-82
2022/05/05 11:34:21;;;;;;;;;;;;;;;;;;4900006;29;19930;-81
2022/05/05 11:36:47;;;;;;;;;;;;;;;;;;4899520;29;19919;-83
2022/05/05 11:39:19;;;;;;;;;;;;;;;;;;4899874;29;20257;-84
2022/05/05 11:41:55;;;;;;;;;;;;;;;;;;4899919;29;19983;-82
2022/05/05 11:44:22;;;;;;;;;;;;;;;;;;4914434;29;19923;-83
2022/05/05 11:46:48;;;;;;;;;;;;;;;;;;4899361;29;19926;-85
2022/05/05 11:49:13;;;;;;;;;;;;;;;;;;4901011;29;19996;-85
2022/05/05 11:51:39;;;;;;;;;;;;;;;;;;4899559;29;19926;-82
2022/05/05 11:54:14;;;;;;;;;;;;;;;;;;4898335;29;20295;-87
2022/05/05 11:56:51;;;;;;;;;;;;;;;;;;4898299;29;19926;-85
2022/05/05 12:02:05;;;;;;;;;;;;;;;;;;4899747;29;19994;-85
2022/05/05 12:04:32;;;;;;;;;;;;;;;;;;4900805;29;19919;-82
2022/05/05 12:06:58;;;;;;;;;;;;;;;;;;4899207;29;20421;-85
2022/05/05 12:09:24;;;;;;;;;;;;;;;;;;4899250;29;20035;-84
2022/05/05 12:11:49;;;;;;;;;;;;;;;;;;4900722;29;20010;-90
2022/05/05 12:14:16;;;;;;;;;;;;;;;;;;4899246;29;19923;-84
2022/05/05 12:16:43;;;;;;;;;;;;;;;;;;4898935;29;20284;-82
2022/05/05 12:19:12;;;;;;;;;;;;;;;;;;4899806;29;19923;-82
2022/05/05 12:21:38;;;;;;;;;;;;;;;;;;4913606;29;19926;-82
2022/05/05 12:24:04;;;;;;;;;;;;;;;;;;4898921;29;19928;-83
2022/05/05 12:26:32;;;;;;;;;;;;;;;;;;4898862;29;20258;-83
2022/05/05 12:28:58;;;;;;;;;;;;;;;;;;4898720;29;20320;-89
2022/05/05 12:31:23;;;;;;;;;;;;;;;;;;4898857;29;20014;-89
2022/05/05 12:33:49;;;;;;;;;;;;;;;;;;4898794;29;20043;-82
2022/05/05 12:36:16;;;;;;;;;;;;;;;;;;4898653;29;19971;-86
2022/05/05 12:38:41;;;;;;;;;;;;;;;;;;4912873;29;19927;-80
2022/05/05 12:41:07;;;;;;;;;;;;;;;;;;4898982;29;19920;-83
2022/05/05 12:43:34;;;;;;;;;;;;;;;;;;4898358;29;19945;-82
2022/05/05 12:46:03;;;;;;;;;;;;;;;;;;4898502;29;19923;-82
2022/05/05 12:48:28;;;;;;;;;;;;;;;;;;4898254;29;20018;-82
2022/05/05 12:50:54;;;;;;;;;;;;;;;;;;4913041;29;20103;-82
2022/05/05 13:01:46;;;;;;;;;;;;;;;;;;4898702;29;19927;-83
2022/05/05 13:04:14;;;;;;;;;;;;;;;;;;4898366;29;19924;-83
2022/05/05 13:06:41;;;;;;;;;;;;;;;;;;4898366;29;20324;-84
2022/05/05 13:09:10;;;;;;;;;;;;;;;;;;4898161;29;19923;-85
2022/05/05 13:11:36;;;;;;;;;;;;;;;;;;4915510;29;19926;-86
2022/05/05 13:14:02;;;;;;;;;;;;;;;;;;4917349;29;19922;-91
2022/05/05 13:16:28;;;;;;;;;;;;;;;;;;4917228;29;20295;-87
2022/05/05 13:18:53;;;;;;;;;;;;;;;;;;4917266;29;19939;-90
2022/05/05 13:21:19;;;;;;;;;;;;;;;;;;4916917;29;19919;-88
2022/05/05 13:23:44;;;;;;;;;;;;;;;;;;4915708;29;19919;-86
2022/05/05 13:26:10;;;;;;;;;;;;;;;;;;4916859;29;20376;-90
2022/05/05 13:28:36;;;;;;;;;;;;;;;;;;4916610;29;20287;-85
2022/05/05 13:31:02;;;;;;;;;;;;;;;;;;4916981;29;19926;-83
2022/05/05 13:33:27;;;;;;;;;;;;;;;;;;4916847;29;19923;-83
2022/05/05 13:35:53;;;;;;;;;;;;;;;;;;4916896;29;19923;-83
2022/05/05 13:38:18;;;;;;;;;;;;;;;;;;4916774;29;19942;-84
2022/05/05 13:40:44;;;;;;;;;;;;;;;;;;4916818;29;19982;-85
2022/05/05 13:43:09;;;;;;;;;;;;;;;;;;4916741;29;20051;-87
2022/05/05 13:45:35;;;;;;;;;;;;;;;;;;4916684;29;20347;-88
2022/05/05 13:48:00;;;;;;;;;;;;;;;;;;4915181;29;19919;-88
2022/05/05 13:50:26;;;;;;;;;;;;;;;;;;4916737;29;19919;-91
2022/05/05 13:52:51;;;;;;;;;;;;;;;;;;4916624;29;19950;-84
2022/05/05 13:55:17;;;;;;;;;;;;;;;;;;4916764;29;20399;-85
2022/05/05 13:57:43;;;;;;;;;;;;;;;;;;4916537;29;20431;-89
2022/05/05 14:00:09;;;;;;;;;;;;;;;;;;4916427;29;19919;-84
2022/05/05 14:02:35;;;;;;;;;;;;;;;;;;4915230;29;19934;-89
2022/05/05 14:05:00;;;;;;;;;;;;;;;;;;4916485;29;20375;-89
2022/05/05 14:12:55;;;;;;;;;;;;;;;;;;4920468;29;19979;-86
2022/05/05 14:15:20;;;;;;;;;;;;;;;;;;4918897;29;19919;-91
2022/05/05 14:17:46;;;;;;;;;;;;;;;;;;4920038;29;19958;-82
2022/05/05 14:20:11;;;;;;;;;;;;;;;;;;4919803;29;19923;-82
2022/05/05 14:22:37;;;;;;;;;;;;;;;;;;4920329;29;19990;-82
2022/05/05 14:25:03;;;;;;;;;;;;;;;;;;4919923;29;20320;-85
2022/05/05 14:27:29;;;;;;;;;;;;;;;;;;4919796;29;20037;-83
2022/05/05 14:29:54;;;;;;;;;;;;;;;;;;4919662;29;19919;-81
2022/05/05 14:32:20;;;;;;;;;;;;;;;;;;4919949;29;19919;-89
2022/05/05 14:34:45;;;;;;;;;;;;;;;;;;4919916;29;19919;-81
2022/05/05 14:37:11;;;;;;;;;;;;;;;;;;4919781;29;19919;-81
2022/05/05 14:39:36;;;;;;;;;;;;;;;;;;4919709;29;19919;-87
2022/05/05 14:42:02;;;;;;;;;;;;;;;;;;4919447;29;19919;-87
2022/05/05 14:44:29;;;;;;;;;;;;;;;;;;4919650;29;19923;-82
2022/05/05 14:46:55;;;;;;;;;;;;;;;;;;4919419;29;20022;-82
2022/05/05 14:49:21;;;;;;;;;;;;;;;;;;4919484;29;20002;-82
2022/05/05 14:51:46;;;;;;;;;;;;;;;;;;4919701;29;19926;-81
2022/05/05 14:54:11;;;;;;;;;;;;;;;;;;4919388;29;19919;-84
2022/05/05 14:56:37;;;;;;;;;;;;;;;;;;4919466;29;19919;-81
2022/05/05 14:59:03;;;;;;;;;;;;;;;;;;4919120;29;19919;-82
2022/05/05 15:01:29;;;;;;;;;;;;;;;;;;4919317;29;19919;-82
2022/05/05 15:03:54;;;;;;;;;;;;;;;;;;4919381;29;20380;-81
2022/05/05 15:06:20;;;;;;;;;;;;;;;;;;4919157;29;20364;-84
2022/05/05 15:08:45;;;;;;;;;;;;;;;;;;4919416;29;19919;-85
2022/05/05 15:11:14;;;;;;;;;;;;;;;;;;4919981;29;19919;-83
2022/05/05 15:13:39;;;;;;;;;;;;;;;;;;4919025;29;19919;-81
2022/05/05 15:16:05;;;;;;;;;;;;;;;;;;4919356;29;19929;-81
2022/05/05 15:18:30;;;;;;;;;;;;;;;;;;4918311;29;20277;-85
2022/05/05 15:21:07;;;;;;;;;;;;;;;;;;4918059;29;20025;-79
2022/05/05 15:23:33;;;;;;;;;;;;;;;;;;4921019;29;20005;-86
2022/05/05 15:25:59;;;;;;;;;;;;;;;;;;4920320;29;19966;-87
2022/05/05 15:28:24;;;;;;;;;;;;;;;;;;4920712;29;19923;-87
2022/05/05 15:30:50;;;;;;;;;;;;;;;;;;4920281;29;19926;-86
2022/05/05 15:33:15;;;;;;;;;;;;;;;;;;4920940;29;19919;-87
2022/05/05 15:35:41;;;;;;;;;;;;;;;;;;4921182;29;20300;-86
2022/05/05 15:38:09;;;;;;;;;;;;;;;;;;4920050;29;20379;-81
2022/05/05 15:40:34;;;;;;;;;;;;;;;;;;4919070;29;19923;-83
2022/05/05 15:43:00;;;;;;;;;;;;;;;;;;4919516;29;20307;-86
2022/05/05 15:45:25;;;;;;;;;;;;;;;;;;4918007;29;19919;-82
2022/05/05 15:47:51;;;;;;;;;;;;;;;;;;4920301;29;19926;-84
2022/05/05 15:50:19;;;;;;;;;;;;;;;;;;4919246;29;19923;-88
2022/05/05 15:52:45;;;;;;;;;;;;;;;;;;4917732;29;20005;-84
2022/05/05 15:55:11;;;;;;;;;;;;;;;;;;4919336;29;20021;-85
2022/05/05 15:57:37;;;;;;;;;;;;;;;;;;4918927;29;20002;-91
2022/05/05 16:00:06;;;;;;;;;;;;;;;;;;4919061;29;19962;-88
2022/05/05 16:02:31;;;;;;;;;;;;;;;;;;4918274;29;19919;-86
2022/05/05 16:04:57;;;;;;;;;;;;;;;;;;4919010;29;19957;-85
2022/05/05 16:07:22;;;;;;;;;;;;;;;;;;4918619;29;20022;-88
2022/05/05 16:09:48;;;;;;;;;;;;;;;;;;4919474;29;19919;-84
2022/05/05 16:12:13;;;;;;;;;;;;;;;;;;4918984;29;19927;-83
2022/05/05 16:14:39;;;;;;;;;;;;;;;;;;4918679;29;19931;-85
2022/05/05 16:17:05;;;;;;;;;;;;;;;;;;4918305;29;19982;-85
2022/05/05 16:19:30;;;;;;;;;;;;;;;;;;4919234;29;19941;-84
2022/05/05 16:21:57;;;;;;;;;;;;;;;;;;4918887;29;19943;-84
2022/05/05 16:30:07;;;;;;;;;;;;;;;;;;4919445;29;19919;-86
2022/05/05 16:32:36;;;;;;;;;;;;;;;;;;4919219;29;19930;-83
2022/05/05 16:35:01;;;;;;;;;;;;;;;;;;4920142;29;20287;-83
2022/05/05 16:37:27;;;;;;;;;;;;;;;;;;4919753;29;19919;-85
2022/05/05 16:39:52;;;;;;;;;;;;;;;;;;4919095;29;19923;-83
2022/05/05 16:42:18;;;;;;;;;;;;;;;;;;4918063;29;20010;-82
2022/05/05 16:44:43;;;;;;;;;;;;;;;;;;4918803;29;19923;-80
2022/05/05 16:47:10;;;;;;;;;;;;;;;;;;4917782;29;19926;-82
2022/05/05 16:49:36;;;;;;;;;;;;;;;;;;4916797;29;20371;-88
2022/05/05 16:52:02;;;;;;;;;;;;;;;;;;4918111;29;19930;-84
2022/05/05 16:54:27;;;;;;;;;;;;;;;;;;4917800;29;19966;-83
2022/05/05 16:56:53;;;;;;;;;;;;;;;;;;4920711;29;20307;-83
2022/05/05 16:59:18;;;;;;;;;;;;;;;;;;4922213;29;20340;-82
2022/05/05 17:01:44;;;;;;;;;;;;;;;;;;4922003;29;19923;-83
2022/05/05 17:04:13;;;;;;;;;;;;;;;;;;4925615;29;19923;-87
2022/05/05 17:06:39;;;;;;;;;;;;;;;;;;4940106;29;19923;-87
2022/05/05 17:09:05;;;;;;;;;;;;;;;;;;4941037;29;19911;-88
2022/05/05 17:11:31;;;;;;;;;;;;;;;;;;4937742;29;19947;-86
2022/05/05 17:13:58;;;;;;;;;;;;;;;;;;4915591;29;20335;-85
2022/05/05 17:16:23;;;;;;;;;;;;;;;;;;4917353;29;20263;-86
2022/05/05 17:18:49;;;;;;;;;;;;;;;;;;4916928;29;20007;-83
2022/05/05 17:21:14;;;;;;;;;;;;;;;;;;4915554;29;19919;-86
2022/05/05 17:23:40;;;;;;;;;;;;;;;;;;4917537;29;19919;-91
2022/05/05 17:26:05;;;;;;;;;;;;;;;;;;4918134;29;19916;-85
2022/05/05 17:28:30;;;;;;;;;;;;;;;;;;4917118;29;19919;-89
2022/05/05 17:30:56;;;;;;;;;;;;;;;;;;4915728;29;20438;-88
2022/05/05 17:33:22;;;;;;;;;;;;;;;;;;4916722;29;19915;-87
2022/05/05 17:35:47;;;;;;;;;;;;;;;;;;4916831;29;19919;-89
2022/05/05 17:38:13;;;;;;;;;;;;;;;;;;4915445;29;19945;-88
2022/05/05 17:40:38;;;;;;;;;;;;;;;;;;4919862;29;20002;-87
2022/05/05 17:43:04;;;;;;;;;;;;;;;;;;4922805;29;19930;-86
2022/05/05 17:50:57;;;;;;;;;;;;;;;;;;4923134;29;19926;-87
2022/05/05 17:53:24;;;;;;;;;;;;;;;;;;4921761;29;20292;-89
2022/05/05 17:55:50;;;;;;;;;;;;;;;;;;4921540;29;19996;-84